Time,TemperatureF,DewpointF,PressureIn,WindDirection,WindDirectionDegrees,WindSpeedMPH,WindSpeedGustMPH,Humidity,HourlyPrecipIn,Conditions,Clouds,dailyrainin,SoftwareType,DateUTC
2013-12-25 00:06:00,14.2,13.0,30.50,WSW,240,0.0,3.0,93,0.00,,,0.00,weatherlink.com 1.10,2013-12-25 05:06:00,
2013-12-25 00:20:00,14.1,12.0,30.50,NW,323,0.0,1.0,93,0.00,,,0.00,weatherlink.com 1.10,2013-12-25 05:20:00,
2013-12-25 00:34:00,13.9,12.0,30.50,NW,319,0.0,3.0,92,0.00,,,0.00,weatherlink.com 1.10,2013-12-25 05:34:00,
2013-12-25 00:49:00,13.6,12.0,30.50,NNW,328,0.0,3.0,92,0.00,,,0.00,weatherlink.com 1.10,2013-12-25 05:49:00,
2013-12-25 01:03:00,13.3,11.0,30.51,NW,323,1.0,4.0,92,0.00,,,0.00,weatherlink.com 1.10,2013-12-25 06:03:00,
2013-12-25 01:18:00,12.6,10.0,30.51,NW,321,0.0,3.0,91,0.00,,,0.00,weatherlink.com 1.10,2013-12-25 06:18:00,
2013-12-25 01:32:00,11.9,10.0,30.51,WNW,290,1.0,2.0,91,0.00,,,0.00,weatherlink.com 1.10,2013-12-25 06:32:00,
2013-12-25 01:47:00,11.4,9.0,30.51,NW,312,0.0,2.0,91,0.00,,,0.00,weatherlink.com 1.10,2013-12-25 06:47:00,
2013-12-25 02:01:00,10.7,9.0,30.52,WNW,295,0.0,1.0,91,0.00,,,0.00,weatherlink.com 1.10,2013-12-25 07:01:00,
2013-12-25 02:16:00,10.4,8.0,30.53,NW,307,0.0,1.0,91,0.00,,,0.00,weatherlink.com 1.10,2013-12-25 07:16:00,
2013-12-25 02:30:00,10.0,8.0,30.54,NW,307,0.0,0.0,91,0.00,,,0.00,weatherlink.com 1.10,2013-12-25 07:30:00,
2013-12-25 02:45:00,9.8,8.0,30.55,West,276,0.0,1.0,91,0.00,,,0.00,weatherlink.com 1.10,2013-12-25 07:45:00,
2013-12-25 02:59:00,9.5,7.0,30.55,West,274,0.0,1.0,91,0.00,,,0.00,weatherlink.com 1.10,2013-12-25 07:59:00,
2013-12-25 03:14:00,8.9,7.0,30.55,ENE,57,0.0,0.0,90,0.00,,,0.00,weatherlink.com 1.10,2013-12-25 08:14:00,
2013-12-25 03:28:00,7.9,6.0,30.55,NNW,328,0.0,0.0,90,0.00,,,0.00,weatherlink.com 1.10,2013-12-25 08:28:00,
2013-12-25 03:42:00,6.8,4.0,30.55,NNW,328,0.0,0.0,89,0.00,,,0.00,weatherlink.com 1.10,2013-12-25 08:42:00,
2013-12-25 03:57:00,6.1,4.0,30.54,North,357,0.0,0.0,89,0.00,,,0.00,weatherlink.com 1.10,2013-12-25 08:57:00,
2013-12-25 04:11:00,4.8,2.0,30.55,North,357,0.0,0.0,89,0.00,,,0.00,weatherlink.com 1.10,2013-12-25 09:11:00,
2013-12-25 04:26:00,4.0,2.0,30.56,North,357,0.0,0.0,90,0.00,,,0.00,weatherlink.com 1.10,2013-12-25 09:26:00,
2013-12-25 04:40:00,3.0,0.0,30.57,North,357,0.0,0.0,89,0.00,,,0.00,weatherlink.com 1.10,2013-12-25 09:40:00,
2013-12-25 04:55:00,2.7,0.0,30.58,North,357,0.0,0.0,90,0.00,,,0.00,weatherlink.com 1.10,2013-12-25 09:55:00,
2013-12-25 05:09:00,3.0,1.0,30.58,North,357,0.0,0.0,91,0.00,,,0.00,weatherlink.com 1.10,2013-12-25 10:09:00,
2013-12-25 05:24:00,2.8,1.0,30.58,North,356,0.0,0.0,90,0.00,,,0.00,weatherlink.com 1.10,2013-12-25 10:24:00,
2013-12-25 05:38:00,2.4,0.0,30.58,North,356,0.0,0.0,90,0.00,,,0.00,weatherlink.com 1.10,2013-12-25 10:38:00,
2013-12-25 05:53:00,2.0,0.0,30.58,North,356,0.0,0.0,90,0.00,,,0.00,weatherlink.com 1.10,2013-12-25 10:53:00,
2013-12-25 06:07:00,1.3,-1.0,30.59,North,356,0.0,0.0,90,0.00,,,0.00,weatherlink.com 1.10,2013-12-25 11:07:00,
2013-12-25 06:22:00,0.7,-2.0,30.59,North,356,0.0,0.0,89,0.00,,,0.00,weatherlink.com 1.10,2013-12-25 11:22:00,
2013-12-25 06:36:00,0.3,-2.0,30.58,North,356,0.0,0.0,90,0.00,,,0.00,weatherlink.com 1.10,2013-12-25 11:36:00,
2013-12-25 06:50:00,-0.1,-2.0,30.59,North,356,0.0,0.0,90,0.00,,,0.00,weatherlink.com 1.10,2013-12-25 11:50:00,
2013-12-25 07:05:00,-0.7,-3.0,30.60,North,356,0.0,0.0,90,0.00,,,0.00,weatherlink.com 1.10,2013-12-25 12:05:00,
2013-12-25 07:20:00,-1.0,-3.0,30.60,North,356,0.0,0.0,89,0.00,,,0.00,weatherlink.com 1.10,2013-12-25 12:20:00,
2013-12-25 07:34:00,-1.4,-4.0,30.60,North,356,0.0,0.0,90,0.00,,,0.00,weatherlink.com 1.10,2013-12-25 12:34:00,
2013-12-25 07:48:00,-0.9,-3.0,30.59,North,356,0.0,0.0,90,0.00,,,0.00,weatherlink.com 1.10,2013-12-25 12:48:00,
2013-12-25 08:03:00,-1.1,-3.0,30.60,North,356,0.0,0.0,90,0.00,,,0.00,weatherlink.com 1.10,2013-12-25 13:03:00,
2013-12-25 08:17:00,-1.1,-3.0,30.60,North,356,0.0,0.0,90,0.00,,,0.00,weatherlink.com 1.10,2013-12-25 13:17:00,
2013-12-25 08:32:00,-0.2,-2.0,30.60,North,356,0.0,0.0,90,0.00,,,0.00,weatherlink.com 1.10,2013-12-25 13:32:00,
2013-12-25 08:46:00,0.8,-1.0,30.61,North,356,0.0,0.0,91,0.00,,,0.00,weatherlink.com 1.10,2013-12-25 13:46:00,
2013-12-25 09:01:00,2.2,0.0,30.61,North,356,0.0,0.0,92,0.00,,,0.00,weatherlink.com 1.10,2013-12-25 14:01:00,
2013-12-25 09:15:00,5.5,4.0,30.61,East,92,0.0,0.0,93,0.00,,,0.00,weatherlink.com 1.10,2013-12-25 14:15:00,
2013-12-25 09:30:00,6.5,5.0,30.61,East,92,0.0,0.0,93,0.00,,,0.00,weatherlink.com 1.10,2013-12-25 14:30:00,
2013-12-25 09:44:00,7.8,6.0,30.61,East,92,0.0,0.0,92,0.00,,,0.00,weatherlink.com 1.10,2013-12-25 14:44:00,
2013-12-25 09:58:00,8.7,7.0,30.61,East,92,0.0,0.0,92,0.00,,,0.00,weatherlink.com 1.10,2013-12-25 14:58:00,
2013-12-25 10:13:00,10.1,8.0,30.61,ESE,120,0.0,1.0,92,0.00,,,0.00,weatherlink.com 1.10,2013-12-25 15:13:00,
2013-12-25 10:27:00,11.8,10.0,30.60,East,94,0.0,1.0,91,0.00,,,0.00,weatherlink.com 1.10,2013-12-25 15:27:00,
2013-12-25 10:42:00,13.5,10.0,30.60,East,99,0.0,0.0,87,0.00,,,0.00,weatherlink.com 1.10,2013-12-25 15:42:00,
2013-12-25 10:56:00,14.5,11.0,30.60,North,11,0.0,0.0,86,0.00,,,0.00,weatherlink.com 1.10,2013-12-25 15:56:00,
2013-12-25 11:11:00,15.5,12.0,30.59,NNE,15,0.0,1.0,84,0.00,,,0.00,weatherlink.com 1.10,2013-12-25 16:11:00,
2013-12-25 11:25:00,16.4,12.0,30.57,ENE,71,0.0,1.0,82,0.00,,,0.00,weatherlink.com 1.10,2013-12-25 16:25:00,
2013-12-25 11:39:00,16.7,11.0,30.57,East,89,0.0,1.0,78,0.00,,,0.00,weatherlink.com 1.10,2013-12-25 16:39:00,
2013-12-25 11:54:00,17.2,11.0,30.56,East,87,0.0,1.0,75,0.00,,,0.00,weatherlink.com 1.10,2013-12-25 16:54:00,
2013-12-25 12:09:00,16.7,11.0,30.55,ESE,104,1.0,1.0,79,0.00,,,0.00,weatherlink.com 1.10,2013-12-25 17:09:00,
2013-12-25 12:23:00,17.5,11.0,30.55,East,93,0.0,1.0,74,0.00,,,0.00,weatherlink.com 1.10,2013-12-25 17:23:00,
2013-12-25 12:37:00,17.4,11.0,30.55,ESE,102,0.0,1.0,74,0.00,,,0.00,weatherlink.com 1.10,2013-12-25 17:37:00,
2013-12-25 12:52:00,17.4,11.0,30.55,ENE,60,1.0,1.0,76,0.00,,,0.00,weatherlink.com 1.10,2013-12-25 17:52:00,
2013-12-25 13:06:00,17.5,11.0,30.54,NNE,31,0.0,1.0,75,0.00,,,0.00,weatherlink.com 1.10,2013-12-25 18:06:00,
2013-12-25 13:21:00,17.7,11.0,30.52,East,97,0.0,1.0,74,0.00,,,0.00,weatherlink.com 1.10,2013-12-25 18:21:00,
2013-12-25 13:35:00,18.1,11.0,30.52,ESE,103,0.0,1.0,72,0.00,,,0.00,weatherlink.com 1.10,2013-12-25 18:35:00,
2013-12-25 13:49:00,18.6,11.0,30.51,East,94,0.0,1.0,71,0.00,,,0.00,weatherlink.com 1.10,2013-12-25 18:49:00,
2013-12-25 14:04:00,18.6,11.0,30.50,ESE,105,0.0,1.0,73,0.00,,,0.00,weatherlink.com 1.10,2013-12-25 19:04:00,
2013-12-25 14:18:00,19.0,12.0,30.51,ENE,69,0.0,1.0,73,0.00,,,0.00,weatherlink.com 1.10,2013-12-25 19:18:00,
2013-12-25 14:33:00,18.7,11.0,30.50,East,95,0.0,2.0,72,0.00,,,0.00,weatherlink.com 1.10,2013-12-25 19:33:00,
2013-12-25 14:47:00,18.6,12.0,30.49,ESE,102,0.0,1.0,74,0.00,,,0.00,weatherlink.com 1.10,2013-12-25 19:47:00,
2013-12-25 15:02:00,18.4,11.0,30.49,East,90,0.0,1.0,74,0.00,,,0.00,weatherlink.com 1.10,2013-12-25 20:02:00,
2013-12-25 15:16:00,18.2,12.0,30.48,ENE,77,0.0,1.0,75,0.00,,,0.00,weatherlink.com 1.10,2013-12-25 20:16:00,
2013-12-25 15:30:00,18.2,11.0,30.49,East,81,0.0,1.0,74,0.00,,,0.00,weatherlink.com 1.10,2013-12-25 20:30:00,
2013-12-25 15:45:00,17.9,12.0,30.48,East,92,0.0,1.0,76,0.00,,,0.00,weatherlink.com 1.10,2013-12-25 20:45:00,
2013-12-25 15:59:00,17.4,11.0,30.48,East,84,0.0,1.0,77,0.00,,,0.00,weatherlink.com 1.10,2013-12-25 20:59:00,
2013-12-25 16:14:00,17.0,11.0,30.48,East,81,0.0,1.0,77,0.00,,,0.00,weatherlink.com 1.10,2013-12-25 21:14:00,
2013-12-25 16:28:00,16.8,11.0,30.47,East,82,0.0,1.0,78,0.00,,,0.00,weatherlink.com 1.10,2013-12-25 21:28:00,
2013-12-25 16:42:00,17.0,11.0,30.47,SE,128,1.0,0.0,77,0.00,,,0.00,weatherlink.com 1.10,2013-12-25 21:42:00,
2013-12-25 16:57:00,17.1,11.0,30.47,East,94,0.0,1.0,77,0.00,,,0.00,weatherlink.com 1.10,2013-12-25 21:57:00,
2013-12-25 17:11:00,17.1,11.0,30.45,East,81,0.0,1.0,78,0.00,,,0.00,weatherlink.com 1.10,2013-12-25 22:11:00,
2013-12-25 17:26:00,17.2,11.0,30.45,East,99,0.0,2.0,77,0.00,,,0.00,weatherlink.com 1.10,2013-12-25 22:26:00,
2013-12-25 17:40:00,17.3,11.0,30.44,East,89,0.0,2.0,77,0.00,,,0.00,weatherlink.com 1.10,2013-12-25 22:40:00,
2013-12-25 17:55:00,17.3,12.0,30.44,East,79,0.0,1.0,78,0.00,,,0.00,weatherlink.com 1.10,2013-12-25 22:55:00,
2013-12-25 18:09:00,17.4,12.0,30.43,East,87,1.0,2.0,79,0.00,,,0.00,weatherlink.com 1.10,2013-12-25 23:09:00,
2013-12-25 18:24:00,17.6,12.0,30.43,ESE,103,1.0,3.0,79,0.00,,,0.00,weatherlink.com 1.10,2013-12-25 23:24:00,
2013-12-25 18:38:00,17.8,12.0,30.43,ESE,110,1.0,2.0,79,0.00,,,0.00,weatherlink.com 1.10,2013-12-25 23:38:00,
2013-12-25 18:53:00,17.9,13.0,30.42,East,85,1.0,3.0,80,0.00,,,0.00,weatherlink.com 1.10,2013-12-25 23:53:00,
2013-12-25 19:07:00,18.1,13.0,30.42,ESE,113,1.0,3.0,80,0.00,,,0.00,weatherlink.com 1.10,2013-12-26 00:07:00,
2013-12-25 19:22:00,18.3,13.0,30.42,ENE,74,0.0,2.0,80,0.00,,,0.00,weatherlink.com 1.10,2013-12-26 00:22:00,
2013-12-25 19:36:00,18.3,13.0,30.42,East,86,0.0,1.0,79,0.00,,,0.00,weatherlink.com 1.10,2013-12-26 00:36:00,
2013-12-25 19:50:00,18.3,13.0,30.41,ENE,76,0.0,1.0,80,0.00,,,0.00,weatherlink.com 1.10,2013-12-26 00:50:00,
2013-12-25 20:05:00,18.3,13.0,30.40,East,84,0.0,1.0,81,0.00,,,0.00,weatherlink.com 1.10,2013-12-26 01:05:00,
2013-12-25 20:19:00,18.5,14.0,30.40,East,99,0.0,1.0,81,0.00,,,0.00,weatherlink.com 1.10,2013-12-26 01:19:00,
2013-12-25 20:34:00,18.7,14.0,30.39,East,94,0.0,1.0,80,0.00,,,0.00,weatherlink.com 1.10,2013-12-26 01:34:00,
2013-12-25 20:48:00,18.9,14.0,30.39,ENE,63,0.0,0.0,81,0.00,,,0.00,weatherlink.com 1.10,2013-12-26 01:48:00,
2013-12-25 21:03:00,19.1,14.0,30.38,ENE,66,0.0,0.0,81,0.00,,,0.00,weatherlink.com 1.10,2013-12-26 02:03:00,
2013-12-25 21:17:00,19.3,14.0,30.38,ESE,103,0.0,0.0,81,0.00,,,0.00,weatherlink.com 1.10,2013-12-26 02:17:00,
2013-12-25 21:31:00,19.7,15.0,30.37,East,98,1.0,2.0,80,0.00,,,0.00,weatherlink.com 1.10,2013-12-26 02:31:00,
2013-12-25 21:46:00,20.5,15.0,30.37,East,95,1.0,1.0,78,0.00,,,0.00,weatherlink.com 1.10,2013-12-26 02:46:00,
2013-12-25 22:00:00,21.0,16.0,30.36,ENE,75,0.0,1.0,79,0.00,,,0.00,weatherlink.com 1.10,2013-12-26 03:00:00,
2013-12-25 22:15:00,21.7,16.0,30.36,ESE,103,2.0,2.0,77,0.00,,,0.00,weatherlink.com 1.10,2013-12-26 03:15:00,
2013-12-25 22:29:00,22.6,16.0,30.35,SSE,166,0.0,2.0,77,0.00,,,0.00,weatherlink.com 1.10,2013-12-26 03:29:00,
2013-12-25 22:58:00,23.7,16.0,30.34,East,98,0.0,1.0,71,0.00,,,0.00,weatherlink.com 1.10,2013-12-26 03:58:00,
2013-12-25 23:13:00,24.0,16.0,30.34,ESE,120,0.0,1.0,72,0.00,,,0.00,weatherlink.com 1.10,2013-12-26 04:13:00,
2013-12-25 23:27:00,24.2,16.0,30.33,SE,131,0.0,1.0,72,0.00,,,0.00,weatherlink.com 1.10,2013-12-26 04:27:00,
2013-12-25 23:42:00,24.4,16.0,30.33,SSE,166,0.0,0.0,70,0.00,,,0.00,weatherlink.com 1.10,2013-12-26 04:42:00,
2013-12-25 23:56:00,24.5,17.0,30.33,ESE,118,0.0,0.0,72,0.00,,,0.00,weatherlink.com 1.10,2013-12-26 04:56:00,